Three Rivers, TX (78071)

7:58 AM CST on March 03, 2015 (GMT -0600)
RAWS GEORGE WEST TX US | Change Station
CLOSE
Current Station
Personal Weather Station
Location: Three Rivers, TX
Elevation: 214 ft
Nearby Weather Stations
Active Advisory: Dense Fog Advisory Active Notice: Public Information Statement

Elev 214 ft 28.37 °N, 98.12 °W | Updated 52 minutes ago

Overcast
Overcast
48 °F
Feels Like 47 °F
N
4
Wind Variable Wind from NNW
Gusts 8.0 mph

Today
High -- | Low -- °F
--% Chance of Precip.
Yesterday
High -- | Low -- °F
Precip. -- in
6:55 AM 6:33 PM
Waxing Gibbous, 96% visible
Pressure 30.01 in
Visibility 0.8 miles
Clouds Overcast 200 ft
Windchill 47 °F
Dew Point 48 °F
Humidity 100%
Rainfall 0.02 in
Snow Depth Not available.
UV 0 out of 12
Pollen 9.30 out of 12
Air Quality Not available.
Flu Activity Not available.
METAR KBEA 031335Z AUTO 32007KT 3/4SM -DZ OVC002 10/10 A3001 RMK AO2 T00970097

More Conditions Fewer Conditions

Pressure 30.01 in
Visibility 0.8 miles
Clouds Overcast 200 ft
Windchill 47 °F
Dew Point 48 °F
Humidity 100%
Rainfall 0.02 in
Snow Depth Not available.
UV 0 out of 12
Pollen 9.30 out of 12
Air Quality Not available.
Flu Activity Not available.
METAR KBEA 031335Z AUTO 32007KT 3/4SM -DZ OVC002 10/10 A3001 RMK AO2 T00970097

More Conditions Fewer Conditions

Nowcast | as of 5:49 am CST on March 3, 2015

Through 9 am CST...patchy light rain and drizzle will continue to affect portions of south Texas and the middle Texas coastal waters this morning. Rainfall will only be a few hundredths of an inch at best. In addition...fog will become dense along the coastal Bend...the bays and waterways... and the near shore waters...with the visibility lowering to 1/4 of a mile. Expect the visibility across the coastal plains and the brush country to range from 1 to 3 miles. Drivers and mariners should take the appropriate precautions.

×

10-Day Weather Forecast

Almanac

Astronomy

Mar. 03, 2015 Rise Set
Actual Time
Civil Twilight
Nautical Twilight
Astronomical Twilight
Moon
Length of Visible Light
Length of Day
Tomorrow will be .
, % of the Moon is Illuminated

Today's Extremes

State Highs State Lows

Community

WunderPhotos

Upload Photos

1,802,102 photos uploaded!

WunderBlogs® & News

Nearby

Air Quality

  Air Quality AQ Index Pollutant
Not available.

Snow Depth

Station Depth Elevation

Earthquake Activity

City Distance Mag. Time & Date
Minimum magnitude displayed is 2.5.

Coastal Water Temperatures

Place Temperature

Nearby Weather Stations

Dense Fog Advisory
Statement as of 7:13 AM CST on March 03, 2015

... Dense fog advisory remains in effect until 9 am CST this
morning...

* visibility... 1/4 mile or less at times.

* Impacts... dense fog will result in hazardous driving
conditions.

Precautionary/preparedness actions...

A dense fog advisory means visibilities will frequently be
reduced to less than one quarter mile. If driving... slow down...
use low-beam headlights... and leave plenty of distance ahead of
you.